Time;durP1;ratioP1;P1;durP2;ratioP2;P2;SDS_P1;SDS_P2;PMS_P1;PMS_P2;Temp;Humidity;BMP_temperature;BMP_pressure;BME280_temperature;BME280_humidity;BME280_pressure;Samples;Min_cycle;Max_cycle;Signal;HPM_P1;HPM_P2
2022/08/30 00:03:02;;;;;;;5.63;3.10;;;15.50;93.30;;;;;;4897712;29;20119;-72
2022/08/30 00:05:29;;;;;;;5.25;3.03;;;15.60;93.40;;;;;;4897476;29;20025;-72
2022/08/30 00:07:56;;;;;;;6.07;3.35;;;15.50;93.40;;;;;;4896830;29;20050;-72
2022/08/30 00:10:22;;;;;;;5.88;3.50;;;15.50;93.70;;;;;;4897343;29;20052;-64
2022/08/30 00:12:47;;;;;;;5.30;3.22;;;15.50;94.00;;;;;;4897037;29;20055;-68
2022/08/30 00:15:14;;;;;;;7.10;3.70;;;15.40;93.90;;;;;;4896701;29;20479;-72
2022/08/30 00:17:40;;;;;;;6.82;3.53;;;15.40;94.00;;;;;;4897027;29;20032;-62
2022/08/30 00:20:09;;;;;;;10.20;3.88;;;15.40;94.20;;;;;;4897277;29;20020;-70
2022/08/30 00:22:35;;;;;;;8.77;3.65;;;15.30;94.20;;;;;;4896749;29;20514;-72
2022/08/30 00:25:01;;;;;;;7.00;4.22;;;15.30;94.30;;;;;;4896976;29;20107;-71
2022/08/30 00:27:27;;;;;;;7.82;4.50;;;15.30;94.40;;;;;;4897039;29;20024;-61
2022/08/30 00:29:54;;;;;;;5.97;3.55;;;15.20;94.50;;;;;;4896304;29;20021;-66
2022/08/30 00:32:20;;;;;;;5.97;3.67;;;15.20;94.60;;;;;;4897215;29;20032;-68
2022/08/30 00:34:53;;;;;;;10.68;4.20;;;15.10;94.50;;;;;;4896819;29;20091;-67
2022/08/30 00:37:20;;;;;;;7.25;4.00;;;15.00;94.80;;;;;;4895055;29;20032;-71
2022/08/30 00:39:46;;;;;;;6.97;3.85;;;15.10;94.90;;;;;;4896882;29;20108;-67
2022/08/30 00:42:13;;;;;;;8.07;3.97;;;15.00;94.90;;;;;;4896676;29;20433;-65
2022/08/30 00:44:40;;;;;;;8.38;3.80;;;15.00;94.90;;;;;;4895868;29;20028;-71
2022/08/30 00:47:06;;;;;;;6.13;3.83;;;14.90;94.90;;;;;;4896703;29;20051;-71
2022/08/30 00:49:33;;;;;;;6.90;3.75;;;14.90;95.10;;;;;;4895883;29;20470;-69
2022/08/30 00:52:00;;;;;;;8.75;4.72;;;14.80;95.20;;;;;;4896603;29;20043;-70
2022/08/30 00:54:28;;;;;;;6.45;4.28;;;14.90;95.60;;;;;;4897048;29;20036;-69
2022/08/30 00:56:54;;;;;;;8.13;4.07;;;14.80;95.30;;;;;;4895978;29;20107;-72
2022/08/30 00:59:23;;;;;;;6.80;3.97;;;14.90;95.30;;;;;;4896517;29;20115;-73
2022/08/30 01:01:49;;;;;;;7.28;4.22;;;14.90;95.40;;;;;;4910752;29;20116;-72
2022/08/30 01:04:15;;;;;;;6.38;3.88;;;14.90;95.40;;;;;;4896085;29;20017;-64
2022/08/30 01:06:41;;;;;;;8.10;4.28;;;14.90;95.50;;;;;;4896331;29;20118;-65
2022/08/30 01:09:07;;;;;;;7.07;4.43;;;14.90;95.60;;;;;;4896339;29;20048;-69
2022/08/30 01:11:36;;;;;;;10.70;4.53;;;14.80;95.80;;;;;;4895607;29;20033;-70
2022/08/30 01:14:02;;;;;;;7.43;4.60;;;14.80;95.50;;;;;;4896348;29;20075;-68
2022/08/30 01:16:31;;;;;;;7.05;4.68;;;14.80;95.70;;;;;;4894781;29;20060;-73
2022/08/30 01:18:59;;;;;;;8.57;4.53;;;14.70;95.80;;;;;;4895807;29;20047;-70
2022/08/30 01:21:49;;;;;;;6.70;4.13;;;14.60;95.80;;;;;;4896422;29;20099;-67
2022/08/30 01:24:17;;;;;;;6.47;4.50;;;14.50;95.90;;;;;;4896199;29;20422;-73
2022/08/30 01:26:43;;;;;;;8.60;4.10;;;14.50;96.10;;;;;;4895536;29;20123;-73
2022/08/30 01:29:13;;;;;;;9.15;4.22;;;14.40;96.20;;;;;;4896058;29;20449;-69
2022/08/30 01:31:39;;;;;;;8.43;4.80;;;14.40;96.20;;;;;;4895968;29;20025;-73
2022/08/30 01:34:06;;;;;;;8.75;4.97;;;14.40;96.30;;;;;;4895706;29;20106;-73
2022/08/30 01:36:35;;;;;;;7.57;4.53;;;14.30;96.50;;;;;;4895590;29;20031;-73
2022/08/30 01:39:02;;;;;;;7.95;4.63;;;14.30;96.60;;;;;;4895446;29;20036;-73
2022/08/30 01:41:34;;;;;;;9.68;4.80;;;14.30;96.60;;;;;;4910077;29;20108;-72
2022/08/30 01:44:04;;;;;;;6.82;4.53;;;14.20;96.60;;;;;;4895057;29;20072;-70
2022/08/30 01:46:38;;;;;;;7.90;4.95;;;14.20;96.60;;;;;;4894702;29;20033;-72
2022/08/30 01:49:08;;;;;;;7.88;5.25;;;14.20;96.70;;;;;;4910185;29;20449;-61
2022/08/30 01:51:34;;;;;;;8.10;5.00;;;14.10;96.90;;;;;;4896329;29;20244;-62
2022/08/30 01:53:59;;;;;;;9.10;5.20;;;14.10;97.00;;;;;;4895819;29;20024;-64
2022/08/30 01:56:27;;;;;;;9.30;5.07;;;14.10;97.00;;;;;;4896411;29;20037;-71
2022/08/30 01:58:54;;;;;;;7.80;4.60;;;14.10;97.00;;;;;;4896299;29;20064;-71
2022/08/30 02:01:24;;;;;;;7.60;4.80;;;14.10;97.00;;;;;;4895251;29;20111;-69
2022/08/30 02:03:53;;;;;;;7.53;4.70;;;14.20;96.90;;;;;;4895638;29;20036;-62
2022/08/30 02:06:20;;;;;;;8.02;5.22;;;14.20;96.90;;;;;;4896000;29;20474;-61
2022/08/30 02:08:46;;;;;;;9.27;4.93;;;14.20;97.00;;;;;;4894747;29;20048;-68
2022/08/30 02:11:12;;;;;;;7.70;4.97;;;14.20;97.30;;;;;;4895808;29;20035;-62
2022/08/30 02:13:39;;;;;;;6.90;4.25;;;14.10;96.90;;;;;;4895367;29;20036;-62
2022/08/30 02:16:08;;;;;;;8.88;5.10;;;14.10;97.00;;;;;;4894963;29;20028;-60
2022/08/30 02:18:34;;;;;;;7.57;4.70;;;14.00;97.10;;;;;;4895352;29;20027;-60
2022/08/30 02:21:00;;;;;;;7.07;4.95;;;14.00;97.10;;;;;;4895087;29;20139;-61
2022/08/30 02:23:26;;;;;;;9.68;5.60;;;13.90;97.20;;;;;;4895613;29;20028;-60
2022/08/30 02:25:52;;;;;;;8.68;5.50;;;13.90;97.40;;;;;;4895627;29;20032;-60
2022/08/30 02:28:19;;;;;;;8.65;5.28;;;13.90;97.40;;;;;;4898003;29;20075;-64
2022/08/30 02:30:46;;;;;;;9.80;5.70;;;13.80;97.50;;;;;;4899188;29;20033;-64
2022/08/30 02:33:11;;;;;;;9.18;6.03;;;13.80;97.60;;;;;;4896995;29;20043;-70
2022/08/30 02:35:37;;;;;;;7.80;5.32;;;13.80;97.80;;;;;;4896941;29;20490;-66
2022/08/30 02:38:03;;;;;;;9.27;5.63;;;13.80;97.60;;;;;;4904503;29;20024;-67
2022/08/30 02:40:29;;;;;;;8.15;5.15;;;13.80;97.70;;;;;;4912191;29;20025;-66
2022/08/30 02:42:55;;;;;;;8.60;5.03;;;13.80;97.60;;;;;;4898443;29;20028;-65
2022/08/30 02:45:22;;;;;;;10.30;5.88;;;13.80;97.70;;;;;;4899012;29;20040;-72
2022/08/30 02:47:47;;;;;;;8.63;5.95;;;13.80;97.80;;;;;;4898724;29;20127;-70
2022/08/30 02:50:14;;;;;;;10.52;6.60;;;13.80;97.80;;;;;;4898307;29;20157;-70
2022/08/30 02:52:40;;;;;;;10.75;6.55;;;13.70;97.80;;;;;;4898089;29;20653;-69
2022/08/30 02:55:06;;;;;;;10.32;6.10;;;13.70;98.00;;;;;;4898192;29;20131;-72
2022/08/30 02:57:32;;;;;;;9.63;5.97;;;13.70;97.90;;;;;;4897949;29;20021;-69
2022/08/30 02:59:58;;;;;;;9.00;6.05;;;13.70;98.00;;;;;;4898682;29;20107;-71
2022/08/30 03:02:23;;;;;;;10.02;6.25;;;13.70;98.10;;;;;;4896464;29;20139;-69
2022/08/30 03:04:50;;;;;;;9.25;6.50;;;13.70;98.10;;;;;;4897517;29;20510;-73
2022/08/30 03:07:15;;;;;;;10.50;6.65;;;13.60;98.10;;;;;;4898603;29;20201;-68
2022/08/30 03:09:41;;;;;;;10.85;6.55;;;13.60;98.20;;;;;;4898197;29;20509;-67
2022/08/30 03:12:08;;;;;;;12.52;6.25;;;13.50;98.30;;;;;;4897844;29;20112;-70
2022/08/30 03:14:35;;;;;;;10.45;6.03;;;13.50;98.30;;;;;;4898154;29;20027;-72
2022/08/30 03:17:02;;;;;;;11.10;7.30;;;13.50;98.30;;;;;;4898247;29;20047;-72
2022/08/30 03:19:28;;;;;;;9.30;6.70;;;13.50;98.40;;;;;;4897460;29;20025;-71
2022/08/30 03:21:54;;;;;;;12.85;7.35;;;13.50;98.50;;;;;;4898474;29;20029;-72
2022/08/30 03:24:19;;;;;;;10.45;6.88;;;13.50;98.60;;;;;;4897471;29;20513;-68
2022/08/30 03:26:45;;;;;;;15.25;7.57;;;13.40;98.60;;;;;;4897964;29;20124;-67
2022/08/30 03:29:11;;;;;;;12.32;7.93;;;13.40;98.60;;;;;;4898180;29;20119;-69
2022/08/30 03:31:36;;;;;;;11.90;7.40;;;13.50;98.70;;;;;;4897169;29;20051;-72
2022/08/30 03:34:04;;;;;;;9.80;6.40;;;13.40;98.70;;;;;;4897910;29;20017;-61
2022/08/30 03:36:30;;;;;;;10.52;7.10;;;13.40;98.70;;;;;;4898044;29;20028;-73
2022/08/30 03:38:56;;;;;;;8.65;6.32;;;13.40;98.80;;;;;;4896891;29;20170;-72
2022/08/30 03:41:23;;;;;;;11.68;6.65;;;13.40;98.80;;;;;;4898026;29;20028;-72
2022/08/30 03:43:49;;;;;;;11.68;6.95;;;13.40;98.80;;;;;;4897758;29;20104;-73
2022/08/30 03:46:14;;;;;;;11.20;7.13;;;13.40;98.70;;;;;;4897515;29;20262;-72
2022/08/30 03:48:40;;;;;;;9.75;6.88;;;13.40;98.80;;;;;;4897395;29;20032;-73
2022/08/30 03:51:06;;;;;;;12.55;7.95;;;13.40;98.80;;;;;;4897939;29;20375;-73
2022/08/30 03:53:32;;;;;;;11.68;7.60;;;13.40;98.90;;;;;;4896790;29;20056;-73
2022/08/30 03:55:57;;;;;;;10.65;6.50;;;13.30;98.90;;;;;;4897559;29;20039;-73
2022/08/30 03:58:23;;;;;;;11.38;7.63;;;13.30;98.80;;;;;;4896230;29;20587;-71
2022/08/30 04:00:49;;;;;;;11.73;6.90;;;13.20;98.90;;;;;;4896850;29;20064;-64
2022/08/30 04:03:17;;;;;;;10.98;7.45;;;13.20;98.90;;;;;;4897521;29;20025;-63
2022/08/30 04:05:42;;;;;;;13.23;8.18;;;13.20;99.00;;;;;;4897218;29;20060;-62
2022/08/30 04:08:08;;;;;;;10.18;6.65;;;13.20;99.00;;;;;;4896794;29;20067;-61
2022/08/30 04:10:34;;;;;;;11.75;7.18;;;13.10;99.10;;;;;;4896811;29;20506;-65
2022/08/30 04:13:00;;;;;;;9.98;6.93;;;13.10;99.00;;;;;;4897184;29;20029;-64
2022/08/30 04:15:25;;;;;;;11.65;7.75;;;13.00;98.90;;;;;;4896732;29;20027;-63
2022/08/30 04:17:52;;;;;;;12.20;7.75;;;13.00;99.00;;;;;;4897011;29;20112;-63
2022/08/30 04:20:18;;;;;;;10.82;7.53;;;12.90;99.10;;;;;;4897162;29;20039;-61
2022/08/30 04:22:44;;;;;;;12.30;7.25;;;12.90;99.30;;;;;;4896299;29;20028;-65
2022/08/30 04:25:10;;;;;;;10.63;7.65;;;12.90;99.30;;;;;;4895475;29;20032;-61
2022/08/30 04:27:36;;;;;;;11.85;7.43;;;13.00;99.30;;;;;;4894626;29;20036;-61
2022/08/30 04:30:02;;;;;;;11.45;7.50;;;13.00;99.30;;;;;;4896934;29;20040;-68
2022/08/30 04:32:28;;;;;;;11.27;7.60;;;13.00;99.20;;;;;;4896707;29;20025;-65
2022/08/30 04:34:57;;;;;;;10.88;7.13;;;13.00;99.30;;;;;;4896126;29;20708;-63
2022/08/30 04:37:23;;;;;;;12.00;7.38;;;13.00;99.20;;;;;;4896387;29;20529;-60
2022/08/30 04:39:49;;;;;;;12.73;7.50;;;13.00;99.20;;;;;;4896167;29;20119;-60
2022/08/30 04:42:15;;;;;;;11.65;7.72;;;13.00;99.20;;;;;;4896012;29;20028;-60
2022/08/30 04:44:40;;;;;;;12.25;7.22;;;13.00;99.20;;;;;;4894697;29;20442;-60
2022/08/30 04:47:08;;;;;;;11.80;7.32;;;13.10;99.20;;;;;;4896158;29;20040;-63
2022/08/30 04:49:34;;;;;;;11.23;7.47;;;13.10;99.20;;;;;;4894861;29;20150;-73
2022/08/30 04:52:00;;;;;;;12.30;8.32;;;13.00;99.10;;;;;;4896583;29;20040;-64
2022/08/30 04:54:26;;;;;;;11.35;7.60;;;13.00;99.10;;;;;;4896446;29;20029;-68
2022/08/30 04:56:51;;;;;;;13.93;7.95;;;13.00;99.20;;;;;;4894321;29;20111;-63
2022/08/30 04:59:17;;;;;;;11.57;8.05;;;12.90;99.20;;;;;;4910868;29;20024;-66
2022/08/30 05:01:42;;;;;;;11.82;7.35;;;12.90;99.10;;;;;;4895448;29;20103;-71
2022/08/30 05:04:08;;;;;;;11.38;6.88;;;13.00;99.10;;;;;;4894803;29;20052;-67
2022/08/30 05:06:35;;;;;;;13.07;7.82;;;13.00;99.20;;;;;;4895129;29;20139;-68
2022/08/30 05:09:00;;;;;;;11.30;7.85;;;13.00;99.20;;;;;;4895529;29;20040;-66
2022/08/30 05:11:27;;;;;;;11.70;7.47;;;13.00;99.20;;;;;;4895128;29;20443;-69
2022/08/30 05:13:52;;;;;;;11.57;6.45;;;13.00;99.20;;;;;;4894484;29;20119;-69
2022/08/30 05:16:18;;;;;;;11.32;7.72;;;13.00;99.10;;;;;;4895834;29;20116;-72
2022/08/30 05:18:45;;;;;;;13.57;7.97;;;13.10;99.10;;;;;;4895285;29;20462;-71
2022/08/30 05:21:15;;;;;;;11.45;8.00;;;13.10;99.20;;;;;;4896280;29;20029;-68
2022/08/30 05:23:41;;;;;;;12.70;8.27;;;13.20;99.20;;;;;;4895950;29;20035;-67
2022/08/30 05:26:10;;;;;;;13.52;7.95;;;13.20;99.10;;;;;;4895196;29;20033;-66
2022/08/30 05:28:36;;;;;;;11.38;7.47;;;13.20;99.10;;;;;;4896261;29;20039;-71
2022/08/30 05:31:02;;;;;;;11.15;7.18;;;13.30;99.00;;;;;;4895385;29;20107;-71
2022/08/30 05:33:28;;;;;;;11.02;7.22;;;13.40;98.90;;;;;;4895986;29;20112;-70
2022/08/30 05:35:54;;;;;;;10.98;7.35;;;13.40;98.90;;;;;;4896055;29;20029;-71
2022/08/30 05:38:19;;;;;;;11.43;7.65;;;13.50;98.80;;;;;;4895509;29;20029;-72
2022/08/30 05:40:45;;;;;;;10.73;7.03;;;13.50;98.90;;;;;;4895882;29;20382;-71
2022/08/30 05:43:12;;;;;;;13.20;8.90;;;13.60;98.80;;;;;;4895014;29;20037;-68
2022/08/30 05:45:38;;;;;;;14.82;7.80;;;13.60;98.90;;;;;;4890483;29;20093;-70
2022/08/30 05:48:04;;;;;;;13.38;8.02;;;13.60;98.90;;;;;;4890559;29;20036;-71
2022/08/30 05:50:30;;;;;;;13.00;8.57;;;13.60;98.90;;;;;;4881514;29;20043;-60
2022/08/30 05:52:55;;;;;;;12.68;7.80;;;13.70;99.10;;;;;;4887994;29;20509;-70
2022/08/30 05:55:21;;;;;;;13.90;7.85;;;13.70;99.00;;;;;;4895123;29;20035;-72
2022/08/30 05:57:47;;;;;;;12.30;8.05;;;13.70;99.00;;;;;;4894256;29;20040;-71
2022/08/30 06:00:16;;;;;;;11.75;7.78;;;13.80;98.90;;;;;;4891705;29;20051;-70
2022/08/30 06:02:43;;;;;;;14.43;8.90;;;13.80;98.80;;;;;;4897012;29;20025;-70
2022/08/30 06:05:10;;;;;;;13.15;8.07;;;13.90;99.00;;;;;;4898928;29;20021;-72
2022/08/30 06:07:36;;;;;;;10.38;7.72;;;14.00;99.00;;;;;;4897948;29;20037;-72
2022/08/30 06:10:05;;;;;;;13.10;7.22;;;14.10;98.90;;;;;;4899511;29;20051;-72
2022/08/30 06:12:31;;;;;;;10.60;7.68;;;14.10;98.80;;;;;;4898480;29;20089;-60
2022/08/30 06:14:56;;;;;;;11.95;7.38;;;14.20;98.80;;;;;;4898895;29;20530;-62
2022/08/30 06:17:22;;;;;;;11.55;7.97;;;14.30;98.90;;;;;;4898167;29;20385;-64
2022/08/30 06:19:47;;;;;;;11.25;8.00;;;14.30;98.70;;;;;;4898341;29;20124;-62
2022/08/30 06:22:13;;;;;;;14.60;8.80;;;14.40;98.70;;;;;;4897502;29;20095;-60
2022/08/30 06:24:38;;;;;;;13.07;7.60;;;14.50;99.00;;;;;;4899117;29;20497;-61
2022/08/30 06:27:04;;;;;;;13.38;7.63;;;14.60;99.10;;;;;;4899160;29;20490;-60
2022/08/30 06:29:30;;;;;;;10.40;7.10;;;14.70;98.80;;;;;;4885055;29;20064;-62
2022/08/30 06:31:57;;;;;;;11.40;7.15;;;14.70;98.80;;;;;;4892527;29;20036;-60
2022/08/30 06:34:22;;;;;;;11.57;6.85;;;14.80;98.70;;;;;;4898537;29;20025;-64
2022/08/30 06:36:48;;;;;;;10.35;7.05;;;15.00;98.50;;;;;;4899024;29;20017;-60
2022/08/30 06:39:14;;;;;;;13.15;7.45;;;15.00;98.40;;;;;;4897524;29;20124;-66
2022/08/30 06:41:40;;;;;;;10.07;6.43;;;15.10;98.20;;;;;;4898253;29;20096;-61
2022/08/30 06:44:07;;;;;;;11.15;6.72;;;15.20;98.20;;;;;;4909300;29;20029;-59
2022/08/30 06:46:35;;;;;;;8.07;5.72;;;15.30;97.60;;;;;;4906141;29;20040;-59
2022/08/30 06:49:01;;;;;;;9.43;5.70;;;15.40;97.40;;;;;;4897955;29;20454;-60
2022/08/30 06:51:33;;;;;;;9.95;5.60;;;15.50;97.10;;;;;;4898660;29;20112;-64
2022/08/30 06:54:00;;;;;;;8.80;5.10;;;15.60;97.00;;;;;;4898127;29;20024;-61
2022/08/30 06:56:26;;;;;;;7.43;5.47;;;15.70;96.80;;;;;;4897336;29;20075;-60
2022/08/30 06:58:52;;;;;;;7.95;5.55;;;15.70;96.70;;;;;;4898605;29;20053;-64
2022/08/30 07:01:21;;;;;;;8.02;5.32;;;15.80;96.40;;;;;;4898564;29;20028;-63
2022/08/30 07:03:47;;;;;;;6.90;4.60;;;15.80;96.00;;;;;;4897725;29;20528;-61
2022/08/30 07:06:13;;;;;;;6.20;4.38;;;15.90;95.70;;;;;;4897699;29;20036;-65
2022/08/30 07:08:39;;;;;;;6.25;3.88;;;16.00;95.40;;;;;;4897754;29;20041;-63
2022/08/30 07:11:06;;;;;;;6.93;4.63;;;16.10;95.20;;;;;;4898047;29;20112;-70
2022/08/30 07:13:32;;;;;;;6.22;3.60;;;16.10;95.40;;;;;;4911366;29;20479;-62
2022/08/30 07:15:58;;;;;;;7.75;4.13;;;16.30;94.90;;;;;;4902773;29;20087;-61
2022/08/30 07:21:12;;;;;;;8.90;3.83;;;16.40;94.30;;;;;;4895399;29;20072;-61
2022/08/30 07:23:37;;;;;;;6.93;3.50;;;16.50;94.10;;;;;;4896038;29;20120;-63
2022/08/30 07:26:05;;;;;;;5.93;2.92;;;16.60;93.80;;;;;;4896240;29;20041;-64
2022/08/30 07:28:32;;;;;;;5.95;3.10;;;16.70;93.20;;;;;;4894468;29;20033;-69
2022/08/30 07:30:58;;;;;;;3.08;2.35;;;16.80;92.80;;;;;;4896028;29;20033;-68
2022/08/30 07:33:23;;;;;;;3.78;2.42;;;16.90;92.20;;;;;;4896780;29;20033;-74
2022/08/30 07:35:49;;;;;;;5.20;2.40;;;17.00;92.00;;;;;;4895027;29;20036;-74
2022/08/30 07:38:15;;;;;;;3.55;2.25;;;17.10;92.10;;;;;;4893418;29;20059;-65
2022/08/30 07:40:40;;;;;;;2.92;1.88;;;17.20;91.20;;;;;;4895080;29;20118;-73
2022/08/30 07:43:06;;;;;;;3.58;2.10;;;17.30;91.00;;;;;;4895191;29;20147;-74
2022/08/30 07:45:32;;;;;;;3.30;1.95;;;17.40;90.30;;;;;;4895163;29;20029;-64
2022/08/30 07:47:57;;;;;;;3.17;2.25;;;17.50;90.10;;;;;;4896778;29;20032;-72
2022/08/30 07:50:23;;;;;;;3.92;1.83;;;17.70;88.30;;;;;;4896516;29;20529;-69
2022/08/30 07:52:48;;;;;;;3.10;2.00;;;17.80;87.50;;;;;;4893876;29;20036;-63
2022/08/30 07:55:15;;;;;;;3.22;1.73;;;17.90;86.80;;;;;;4895091;29;20490;-74
2022/08/30 07:57:41;;;;;;;3.50;2.00;;;18.00;86.20;;;;;;4896121;29;20044;-72
2022/08/30 08:00:07;;;;;;;3.60;1.80;;;18.10;85.00;;;;;;4895764;29;20029;-69
2022/08/30 08:02:34;;;;;;;3.50;1.70;;;18.10;84.50;;;;;;4895764;29;20029;-73
2022/08/30 08:04:59;;;;;;;3.38;1.50;;;18.20;83.40;;;;;;4895812;29;20050;-73
2022/08/30 08:07:25;;;;;;;3.28;1.58;;;18.30;83.20;;;;;;4893703;29;20477;-64
2022/08/30 08:09:50;;;;;;;2.38;1.52;;;18.40;83.50;;;;;;4894846;29;20528;-73
2022/08/30 08:12:16;;;;;;;3.50;1.70;;;18.50;83.20;;;;;;4896153;29;20171;-66
2022/08/30 08:14:41;;;;;;;3.25;1.70;;;18.60;81.20;;;;;;4895247;29;20025;-68
2022/08/30 08:17:08;;;;;;;3.15;1.48;;;18.70;80.60;;;;;;4909085;29;20514;-73
2022/08/30 08:19:33;;;;;;;3.05;1.80;;;18.70;80.00;;;;;;4895122;29;20025;-75
2022/08/30 08:21:59;;;;;;;3.53;1.52;;;18.80;79.00;;;;;;4895012;29;20021;-66
2022/08/30 08:24:27;;;;;;;3.47;1.65;;;18.80;78.40;;;;;;4894049;29;20482;-66
2022/08/30 08:26:53;;;;;;;3.13;1.70;;;18.90;77.30;;;;;;4909741;29;20077;-61
2022/08/30 08:29:20;;;;;;;2.42;1.38;;;19.00;76.30;;;;;;4895372;29;20396;-62
2022/08/30 08:31:45;;;;;;;3.72;1.77;;;19.10;76.10;;;;;;4894705;29;20036;-61
2022/08/30 08:34:12;;;;;;;2.85;1.40;;;19.10;75.00;;;;;;4895359;29;20025;-68
2022/08/30 08:36:38;;;;;;;3.83;1.48;;;19.10;74.10;;;;;;4894384;29;20043;-64
2022/08/30 08:39:06;;;;;;;2.60;1.38;;;19.20;73.10;;;;;;4876794;29;20048;-67
2022/08/30 08:41:53;;;;;;;2.35;1.20;;;19.30;72.20;;;;;;4894685;29;20107;-64
2022/08/30 08:44:38;;;;;;;1.95;1.20;;;19.30;71.80;;;;;;4895304;29;20021;-62
2022/08/30 08:47:12;;;;;;;3.13;1.20;;;19.40;71.40;;;;;;4894213;29;20124;-63
2022/08/30 08:49:39;;;;;;;1.95;1.30;;;19.50;71.40;;;;;;4894608;29;20040;-61
2022/08/30 08:55:00;;;;;;;2.97;1.52;;;19.60;69.30;;;;;;4885613;29;20139;-61
2022/08/30 08:57:34;;;;;;;3.38;1.60;;;19.60;69.10;;;;;;4876791;29;20021;-65
2022/08/30 08:59:59;;;;;;;2.47;1.45;;;19.60;68.60;;;;;;4902086;29;20107;-61
2022/08/30 09:02:28;;;;;;;2.00;1.05;;;19.70;69.00;;;;;;4913900;29;20103;-64
2022/08/30 09:04:58;;;;;;;2.83;1.50;;;19.80;70.20;;;;;;4894622;29;20414;-63
2022/08/30 09:07:28;;;;;;;3.78;1.20;;;19.80;69.30;;;;;;4895432;29;20119;-61
2022/08/30 09:09:56;;;;;;;3.92;1.10;;;19.90;69.40;;;;;;4893038;29;20044;-63
2022/08/30 09:12:22;;;;;;;2.70;1.70;;;19.90;69.40;;;;;;4884828;29;20028;-61
2022/08/30 09:14:54;;;;;;;3.17;1.33;;;20.00;69.70;;;;;;4879633;29;20024;-64
2022/08/30 09:17:21;;;;;;;4.43;2.10;;;20.00;68.90;;;;;;4894974;29;20108;-61
2022/08/30 09:19:52;;;;;;;2.53;1.35;;;20.10;68.60;;;;;;4894872;29;20040;-69
2022/08/30 09:22:21;;;;;;;2.95;1.33;;;20.20;67.20;;;;;;4895784;29;20036;-63
2022/08/30 09:24:50;;;;;;;2.38;1.30;;;20.20;66.50;;;;;;4894230;29;20029;-70
2022/08/30 09:27:26;;;;;;;3.13;1.20;;;20.10;67.00;;;;;;4893180;29;20093;-66
2022/08/30 09:29:58;;;;;;;4.93;1.20;;;20.20;66.50;;;;;;4893345;29;20049;-67
2022/08/30 09:32:39;;;;;;;3.08;1.30;;;20.30;64.70;;;;;;4885566;29;20024;-62
2022/08/30 09:35:08;;;;;;;2.73;1.20;;;20.40;65.30;;;;;;4894615;29;20038;-68
2022/08/30 09:37:43;;;;;;;2.78;1.13;;;20.50;64.40;;;;;;4907936;29;20088;-68
2022/08/30 09:40:21;;;;;;;3.75;1.17;;;20.50;64.40;;;;;;4893669;29;20163;-74
2022/08/30 09:43:03;;;;;;;2.50;1.13;;;20.60;63.20;;;;;;4895037;29;20098;-66
2022/08/30 09:45:36;;;;;;;2.10;1.10;;;20.60;63.20;;;;;;4892981;29;20039;-70
2022/08/30 09:48:23;;;;;;;2.45;1.15;;;20.60;62.50;;;;;;4894966;29;20037;-71
2022/08/30 09:51:13;;;;;;;2.00;1.17;;;20.60;62.00;;;;;;4893253;29;20091;-73
2022/08/30 09:54:00;;;;;;;1.42;1.10;;;20.60;62.40;;;;;;4892874;29;20491;-75
2022/08/30 09:56:54;;;;;;;2.83;1.20;;;20.60;63.50;;;;;;4893893;29;20477;-67
2022/08/30 09:59:36;;;;;;;2.70;1.50;;;20.70;63.40;;;;;;4893264;29;20035;-64
2022/08/30 10:02:31;;;;;;;2.05;1.20;;;20.70;64.40;;;;;;4894306;29;20025;-69
2022/08/30 10:05:18;;;;;;;2.03;1.13;;;20.80;63.00;;;;;;4894017;29;20036;-69
2022/08/30 10:07:58;;;;;;;3.35;1.23;;;20.80;62.40;;;;;;4893133;29;20509;-71
2022/08/30 10:10:24;;;;;;;2.08;0.80;;;20.90;60.80;;;;;;4882176;29;20040;-74
2022/08/30 10:12:58;;;;;;;2.53;1.52;;;20.90;61.00;;;;;;4894034;29;20378;-69
2022/08/30 10:15:31;;;;;;;2.05;1.13;;;21.00;59.40;;;;;;4893719;29;20037;-66
2022/08/30 10:18:06;;;;;;;3.20;1.55;;;21.10;59.00;;;;;;4892628;29;20067;-67
2022/08/30 10:20:51;;;;;;;2.95;1.20;;;21.10;59.20;;;;;;4893382;29;20033;-76
2022/08/30 10:23:21;;;;;;;2.53;1.15;;;21.20;59.30;;;;;;4895046;29;20056;-67
2022/08/30 10:25:49;;;;;;;2.40;1.20;;;21.20;60.30;;;;;;4893480;29;20064;-69
2022/08/30 10:28:33;;;;;;;3.00;1.40;;;21.30;60.60;;;;;;4894658;29;20115;-74
2022/08/30 10:31:06;;;;;;;2.75;1.10;;;21.30;60.00;;;;;;4894004;29;20096;-77
2022/08/30 10:33:42;;;;;;;2.42;1.25;;;21.40;58.90;;;;;;4894413;29;20462;-76
2022/08/30 10:36:13;;;;;;;2.95;1.20;;;21.40;58.60;;;;;;4893893;29;20104;-69
2022/08/30 10:38:45;;;;;;;2.78;1.20;;;21.50;58.40;;;;;;4894008;29;20250;-61
2022/08/30 10:41:29;;;;;;;3.05;1.40;;;21.50;58.50;;;;;;4893610;29;20024;-60
2022/08/30 10:44:19;;;;;;;2.97;1.25;;;21.50;58.20;;;;;;4895327;29;20057;-62
2022/08/30 10:46:57;;;;;;;2.55;1.25;;;21.60;58.00;;;;;;4907326;29;20040;-69
2022/08/30 10:49:26;;;;;;;4.85;1.15;;;21.60;58.20;;;;;;4897032;29;20029;-63
2022/08/30 10:51:57;;;;;;;3.45;1.00;;;21.60;57.40;;;;;;4897639;29;20037;-60
2022/08/30 10:55:03;;;;;;;3.85;1.23;;;21.70;57.10;;;;;;4897024;29;20029;-62
2022/08/30 10:57:29;;;;;;;1.75;1.20;;;21.70;57.10;;;;;;4896489;29;20048;-62
2022/08/30 11:00:13;;;;;;;2.00;1.05;;;21.70;56.20;;;;;;4896381;29;20048;-61
2022/08/30 11:02:50;;;;;;;2.35;1.10;;;21.70;56.20;;;;;;4897097;29;20116;-62
2022/08/30 11:05:37;;;;;;;2.67;1.10;;;21.80;55.70;;;;;;4898310;29;20518;-64
2022/08/30 11:08:29;;;;;;;1.80;0.85;;;21.90;55.00;;;;;;4893861;29;20044;-66
2022/08/30 11:11:13;;;;;;;1.13;0.80;;;21.90;56.10;;;;;;4888571;29;20041;-67
2022/08/30 11:13:44;;;;;;;2.30;0.90;;;22.00;55.30;;;;;;4911196;29;20036;-67
2022/08/30 11:16:17;;;;;;;6.80;1.17;;;22.00;54.50;;;;;;4896906;29;20032;-64
2022/08/30 11:18:47;;;;;;;2.92;1.10;;;22.10;54.10;;;;;;4896954;29;20495;-71
2022/08/30 11:21:37;;;;;;;3.30;1.10;;;22.10;53.50;;;;;;4896395;29;20028;-70
2022/08/30 11:24:23;;;;;;;1.73;1.00;;;22.10;54.50;;;;;;4896976;29;20043;-63
2022/08/30 11:26:55;;;;;;;3.25;1.50;;;22.20;53.80;;;;;;4895557;29;20316;-63
2022/08/30 11:29:43;;;;;;;2.05;1.30;;;22.20;53.70;;;;;;4893978;29;20037;-71
2022/08/30 11:32:12;;;;;;;2.20;1.00;;;22.20;53.40;;;;;;4897253;29;20057;-67
2022/08/30 11:34:54;;;;;;;1.55;0.80;;;22.20;53.70;;;;;;4896670;29;20053;-65
2022/08/30 11:37:41;;;;;;;2.55;1.10;;;22.20;53.90;;;;;;4895549;29;20040;-62
2022/08/30 11:40:29;;;;;;;1.80;0.80;;;22.30;53.70;;;;;;4895432;29;20028;-67
2022/08/30 11:42:55;;;;;;;2.50;0.82;;;22.20;53.00;;;;;;4885143;29;20037;-65
2022/08/30 11:45:24;;;;;;;2.85;0.82;;;22.30;53.90;;;;;;4897160;29;20490;-61
2022/08/30 11:47:50;;;;;;;1.75;1.00;;;22.40;52.60;;;;;;4896676;29;20036;-63
2022/08/30 11:50:22;;;;;;;1.65;0.98;;;22.40;53.80;;;;;;4896478;29;20046;-69
2022/08/30 11:53:13;;;;;;;4.15;1.13;;;22.50;53.20;;;;;;4896549;29;20538;-74
2022/08/30 11:55:53;;;;;;;2.10;0.90;;;22.60;52.40;;;;;;4895862;29;20029;-71
2022/08/30 11:58:35;;;;;;;1.88;1.10;;;22.70;52.50;;;;;;4910738;29;20127;-66
2022/08/30 12:01:18;;;;;;;3.33;1.25;;;22.70;51.80;;;;;;4895652;29;20032;-68
2022/08/30 12:03:54;;;;;;;1.13;0.70;;;22.70;51.70;;;;;;4895447;29;20039;-62
2022/08/30 12:06:40;;;;;;;3.55;1.00;;;22.60;52.40;;;;;;4896456;29;20119;-61
2022/08/30 12:09:29;;;;;;;1.55;0.88;;;22.60;51.50;;;;;;4895186;29;20122;-69
2022/08/30 12:11:59;;;;;;;2.00;1.10;;;22.70;51.60;;;;;;4867004;29;20044;-71
2022/08/30 12:14:53;;;;;;;1.13;0.80;;;22.70;51.10;;;;;;4892643;29;20469;-73
2022/08/30 12:20:21;;;;;;;1.70;1.10;;;22.80;50.90;;;;;;4896773;29;20084;-76
2022/08/30 12:22:48;;;;;;;2.28;1.10;;;22.80;51.00;;;;;;4896586;29;20038;-71
2022/08/30 12:25:31;;;;;;;1.40;0.90;;;22.80;50.70;;;;;;4894911;29;20031;-72
2022/08/30 12:28:13;;;;;;;2.60;1.30;;;22.80;50.80;;;;;;4896096;29;20100;-69
2022/08/30 12:30:39;;;;;;;1.38;0.90;;;22.90;50.80;;;;;;4895586;29;20032;-75
2022/08/30 12:33:11;;;;;;;1.52;0.95;;;22.90;51.30;;;;;;4895280;29;20043;-77
2022/08/30 12:35:39;;;;;;;2.38;0.93;;;23.00;51.00;;;;;;4895394;29;20116;-73
2022/08/30 12:38:13;;;;;;;2.13;1.00;;;23.00;51.00;;;;;;4895079;29;20029;-75
2022/08/30 12:40:51;;;;;;;2.40;1.02;;;23.10;51.00;;;;;;4895888;29;20035;-77
2022/08/30 12:43:30;;;;;;;2.17;0.70;;;23.10;50.60;;;;;;4896027;29;20654;-78
2022/08/30 12:46:00;;;;;;;1.35;0.90;;;23.20;51.20;;;;;;4895229;29;20031;-76
2022/08/30 12:48:28;;;;;;;2.75;0.77;;;23.20;50.30;;;;;;4895558;29;20047;-65
2022/08/30 12:50:56;;;;;;;1.58;0.95;;;23.20;49.80;;;;;;4894235;29;20116;-63
2022/08/30 12:53:29;;;;;;;1.27;0.77;;;23.20;50.10;;;;;;4876621;29;20176;-64
2022/08/30 12:56:07;;;;;;;1.42;0.77;;;23.20;49.60;;;;;;4877006;29;20406;-62
2022/08/30 12:58:39;;;;;;;1.92;1.00;;;23.20;49.60;;;;;;4876841;29;20108;-72
2022/08/30 13:01:23;;;;;;;3.15;1.15;;;23.30;49.30;;;;;;4886485;29;20044;-62
2022/08/30 13:04:17;;;;;;;1.90;1.20;;;23.30;50.20;;;;;;4895580;29;20128;-63
2022/08/30 13:06:57;;;;;;;4.13;0.90;;;23.30;49.60;;;;;;4893794;29;20063;-70